YMAV/AVV METAR and TAF weather

Enter ICAO airport designator
Station Type Date Time Source
YMAV METAR 2021/05/13 05:08 UTC NOAA

YMAV 130508Z AUTO 27015G29KT 5000 -SHRA SCT012 SCT017 BKN024 12/11 Q1011


Station Type Date Time Source
YMAV Decoded METAR 2021/05/13 05:08 UTC NOAA

Avalon, Avalon Airport, Australia (YMAV) 38-02S 144-29E
May 13, 2021 - 01:08 AM EDT / 2021.05.13 0508 UTC
Wind: from the W (270 degrees) at 17 MPH (15 KT) gusting to 33 MPH (29 KT):0
Visibility: 3 mile(s):0
Sky conditions: mostly cloudy
Weather: light rain showers
Temperature: 53 F (12 C)
Dew Point: 51 F (11 C)
Relative Humidity: 93%
Pressure (altimeter): 29.85 in. Hg (1011 hPa)
ob: YMAV 130508Z AUTO 27015G29KT 5000 -SHRA SCT012 SCT017 BKN024 12/11 Q1011
cycle: 5

Station Type Date Time Source
YMAV TAF 2021/05/13 06:12 UTC NOAA

TAF TAF
AMD YMAV 130510Z 1306/1406 26016KT 9999 -SHRA SCT015 BKN025
FM130900 28011KT 9999 NSW SCT040
FM131200 27015G25KT CAVOK
FM131700 28014KT 9999 -SHRA FEW025 BKN040
FM140000 26016G26KT 9999 -SHRA SCT025 INTER 1306/1307 26016G26KT 3000 SHRA SCT010 BKN015 INTER 1317/1406 25018G28KT 5000 SHRA SCT015 BKN020

Example: see airport list